Time;durP1;ratioP1;P1;durP2;ratioP2;P2;SDS_P1;SDS_P2;PMS_P1;PMS_P2;Temp;Humidity;BMP_temperature;BMP_pressure;BME280_temperature;BME280_humidity;BME280_pressure;Samples;Min_cycle;Max_cycle;Signal;HPM_P1;HPM_P2
2022/12/24 00:01:15;;;;;;;14.82;7.68;;;;;;;;;;5038387;28;20044;-75
2022/12/24 00:03:41;;;;;;;11.27;6.20;;;;;;;;;;5046279;28;20686;-74
2022/12/24 00:06:08;;;;;;;10.60;6.72;;;;;;;;;;5044298;28;20036;-75
2022/12/24 00:08:34;;;;;;;12.38;6.63;;;;;;;;;;5043710;28;20076;-74
2022/12/24 00:11:00;;;;;;;37.20;21.88;;;;;;;;;;5044799;28;20037;-74
2022/12/24 00:13:26;;;;;;;38.35;21.25;;;;;;;;;;5047169;28;20033;-74
2022/12/24 00:15:52;;;;;;;9.75;5.18;;;;;;;;;;5042061;28;20108;-74
2022/12/24 00:18:18;;;;;;;8.18;4.35;;;;;;;;;;5042897;28;20104;-74
2022/12/24 00:20:46;;;;;;;9.32;4.00;;;;;;;;;;5042081;28;20040;-75
2022/12/24 00:23:12;;;;;;;9.60;4.60;;;;;;;;;;5046169;28;20090;-75
2022/12/24 00:25:38;;;;;;;9.00;5.03;;;;;;;;;;5046583;28;20116;-75
2022/12/24 00:28:04;;;;;;;12.02;4.70;;;;;;;;;;5045379;28;20047;-74
2022/12/24 00:30:30;;;;;;;10.13;5.53;;;;;;;;;;5046902;28;20028;-74
2022/12/24 00:32:56;;;;;;;9.13;6.38;;;;;;;;;;5046329;28;20048;-75
2022/12/24 00:35:22;;;;;;;12.13;6.70;;;;;;;;;;5034939;28;20037;-73
2022/12/24 00:37:48;;;;;;;11.80;5.95;;;;;;;;;;5042404;28;20531;-74
2022/12/24 00:40:15;;;;;;;13.55;5.70;;;;;;;;;;5044276;28;20025;-74
2022/12/24 00:42:41;;;;;;;9.10;4.93;;;;;;;;;;5039843;28;20029;-74
2022/12/24 00:45:07;;;;;;;6.80;3.95;;;;;;;;;;5046383;28;20052;-74
2022/12/24 00:47:33;;;;;;;14.20;8.77;;;;;;;;;;5036947;28;20068;-74
2022/12/24 00:49:59;;;;;;;8.52;3.28;;;;;;;;;;5043107;28;20411;-74
2022/12/24 00:52:25;;;;;;;11.25;3.13;;;;;;;;;;5041618;28;20041;-74
2022/12/24 00:54:51;;;;;;;7.47;3.22;;;;;;;;;;5043618;28;20470;-74
2022/12/24 00:57:17;;;;;;;9.40;6.07;;;;;;;;;;5043456;28;20052;-73
2022/12/24 00:59:44;;;;;;;12.57;6.97;;;;;;;;;;5044898;28;20036;-73
2022/12/24 01:02:10;;;;;;;10.40;4.97;;;;;;;;;;5044579;28;20094;-74
2022/12/24 01:07:20;;;;;;;8.40;4.18;;;;;;;;;;5037608;28;20048;-73
2022/12/24 01:09:46;;;;;;;6.55;3.17;;;;;;;;;;5044234;28;20122;-74
2022/12/24 01:12:12;;;;;;;9.00;5.15;;;;;;;;;;5044357;28;20037;-74
2022/12/24 01:14:38;;;;;;;17.02;11.82;;;;;;;;;;5039450;28;20404;-74
2022/12/24 01:17:04;;;;;;;15.90;8.43;;;;;;;;;;5042055;28;20052;-74
2022/12/24 01:19:30;;;;;;;11.23;6.93;;;;;;;;;;5039691;28;20028;-74
2022/12/24 01:21:57;;;;;;;13.57;6.10;;;;;;;;;;5039565;28;20029;-73
2022/12/24 01:24:23;;;;;;;8.02;3.97;;;;;;;;;;5042614;28;20557;-74
2022/12/24 01:26:49;;;;;;;5.35;2.40;;;;;;;;;;5037543;28;20083;-74
2022/12/24 01:29:15;;;;;;;6.32;2.42;;;;;;;;;;5036060;28;20083;-74
2022/12/24 01:31:41;;;;;;;5.85;2.72;;;;;;;;;;5046200;28;20713;-74
2022/12/24 01:34:07;;;;;;;6.30;2.95;;;;;;;;;;5044467;28;20032;-74
2022/12/24 01:36:33;;;;;;;6.43;3.45;;;;;;;;;;5042782;28;20033;-74
2022/12/24 01:38:59;;;;;;;6.65;3.45;;;;;;;;;;5043173;28;20428;-74
2022/12/24 01:44:21;;;;;;;7.72;3.28;;;;;;;;;;5044854;28;20044;-74
2022/12/24 01:46:48;;;;;;;11.15;5.43;;;;;;;;;;5041317;28;20135;-74
2022/12/24 01:49:15;;;;;;;19.77;10.55;;;;;;;;;;5044575;28;20104;-74
2022/12/24 01:52:00;;;;;;;9.48;5.05;;;;;;;;;;5043313;28;20048;-74
2022/12/24 01:54:41;;;;;;;8.40;2.92;;;;;;;;;;5038858;28;20476;-74
2022/12/24 01:57:09;;;;;;;8.73;2.50;;;;;;;;;;5040194;28;20120;-74
2022/12/24 01:59:36;;;;;;;6.28;2.70;;;;;;;;;;5041476;28;20115;-74
2022/12/24 02:02:03;;;;;;;4.72;2.10;;;;;;;;;;5041185;28;20061;-74
2022/12/24 02:04:49;;;;;;;3.33;1.20;;;;;;;;;;5044674;28;20029;-74
2022/12/24 02:07:15;;;;;;;6.20;2.55;;;;;;;;;;5041068;28;20045;-74
2022/12/24 02:09:41;;;;;;;5.20;2.45;;;;;;;;;;5043749;28;20484;-74
2022/12/24 02:12:07;;;;;;;8.20;3.13;;;;;;;;;;5045656;28;20140;-74
2022/12/24 02:14:34;;;;;;;7.90;4.00;;;;;;;;;;5045397;28;20037;-74
2022/12/24 02:17:00;;;;;;;9.05;4.40;;;;;;;;;;5041794;28;20051;-74
2022/12/24 02:19:44;;;;;;;4.95;2.58;;;;;;;;;;5045440;28;20029;-74
2022/12/24 02:22:36;;;;;;;10.18;3.75;;;;;;;;;;5040567;28;20105;-74
2022/12/24 02:25:02;;;;;;;4.65;2.15;;;;;;;;;;5011360;28;20045;-74
2022/12/24 02:27:34;;;;;;;6.38;2.70;;;;;;;;;;5044476;28;20047;-74
2022/12/24 02:30:00;;;;;;;;;;;;;;;;;;5038803;28;20033;-74
2022/12/24 02:32:26;;;;;;;5.47;2.55;;;;;;;;;;5044255;28;19917;-74
2022/12/24 02:34:58;;;;;;;6.80;2.33;;;;;;;;;;5037838;28;20363;-74
2022/12/24 02:37:32;;;;;;;5.27;2.53;;;;;;;;;;5040317;28;20088;-74
2022/12/24 02:39:58;;;;;;;4.82;2.72;;;;;;;;;;5039446;28;20107;-74
2022/12/24 02:42:26;;;;;;;8.77;3.25;;;;;;;;;;5035862;28;20116;-74
2022/12/24 02:44:59;;;;;;;5.18;2.42;;;;;;;;;;5039476;28;20379;-74
2022/12/24 02:47:27;;;;;;;4.85;1.98;;;;;;;;;;5035122;28;20156;-74
2022/12/24 02:49:53;;;;;;;6.22;2.55;;;;;;;;;;5040982;28;20068;-74
2022/12/24 02:52:34;;;;;;;3.67;2.03;;;;;;;;;;5042359;28;20033;-74
2022/12/24 02:55:03;;;;;;;4.63;1.95;;;;;;;;;;5042336;28;20647;-74
2022/12/24 02:57:43;;;;;;;3.90;1.75;;;;;;;;;;5038912;28;20614;-74
2022/12/24 03:00:13;;;;;;;5.15;1.70;;;;;;;;;;5045819;28;20411;-75
2022/12/24 03:03:14;;;;;;;3.92;2.00;;;;;;;;;;5038935;28;20063;-74
2022/12/24 03:05:49;;;;;;;3.70;1.98;;;;;;;;;;4964375;28;20054;-75
2022/12/24 03:08:14;;;;;;;2.53;1.30;;;;;;;;;;5029848;28;20047;-75
2022/12/24 03:10:43;;;;;;;3.90;2.10;;;;;;;;;;5042092;28;20033;-75
2022/12/24 03:13:12;;;;;;;4.95;1.77;;;;;;;;;;5039809;28;20040;-75
2022/12/24 03:15:39;;;;;;;3.20;1.10;;;;;;;;;;5045388;28;20033;-74
2022/12/24 03:18:07;;;;;;;3.45;1.80;;;;;;;;;;5035575;28;20079;-74
2022/12/24 03:20:43;;;;;;;3.85;2.17;;;;;;;;;;5041760;28;20029;-75
2022/12/24 03:23:10;;;;;;;3.47;2.35;;;;;;;;;;5047074;28;20040;-75
2022/12/24 03:25:38;;;;;;;3.28;1.27;;;;;;;;;;5046252;28;20033;-74
2022/12/24 03:28:05;;;;;;;3.78;1.75;;;;;;;;;;5043421;28;20133;-74
2022/12/24 03:30:32;;;;;;;3.53;1.50;;;;;;;;;;5049224;28;20051;-75
2022/12/24 03:32:58;;;;;;;2.42;1.25;;;;;;;;;;5048226;28;20044;-74
2022/12/24 03:35:24;;;;;;;3.83;1.20;;;;;;;;;;5042739;28;20041;-75
2022/12/24 03:37:50;;;;;;;2.28;0.93;;;;;;;;;;5047970;28;20029;-74
2022/12/24 03:40:16;;;;;;;2.42;0.95;;;;;;;;;;5044763;28;20054;-74
2022/12/24 03:42:42;;;;;;;2.70;0.75;;;;;;;;;;5042709;28;20037;-75
2022/12/24 03:45:08;;;;;;;1.67;0.60;;;;;;;;;;5048510;28;20029;-74
2022/12/24 03:47:34;;;;;;;1.77;0.60;;;;;;;;;;5030831;28;20914;-74
2022/12/24 03:50:00;;;;;;;1.67;0.70;;;;;;;;;;5047976;28;20897;-74
2022/12/24 03:52:27;;;;;;;1.67;0.55;;;;;;;;;;5038302;28;20045;-75
2022/12/24 03:54:53;;;;;;;1.17;0.50;;;;;;;;;;5047538;28;20051;-75
2022/12/24 03:57:19;;;;;;;1.05;0.55;;;;;;;;;;5044809;28;20033;-74
2022/12/24 03:59:45;;;;;;;1.65;0.50;;;;;;;;;;5046474;28;20040;-75
2022/12/24 04:02:11;;;;;;;2.95;0.82;;;;;;;;;;5041310;28;20562;-75
2022/12/24 04:04:37;;;;;;;3.00;0.70;;;;;;;;;;5043979;28;20045;-74
2022/12/24 04:07:03;;;;;;;4.10;0.57;;;;;;;;;;5039522;28;20029;-74
2022/12/24 04:09:29;;;;;;;4.60;0.50;;;;;;;;;;5043894;28;20472;-75
2022/12/24 04:11:55;;;;;;;1.73;0.70;;;;;;;;;;5041600;28;20079;-75
2022/12/24 04:14:21;;;;;;;2.45;0.80;;;;;;;;;;5046013;28;20037;-75
2022/12/24 04:16:47;;;;;;;2.40;0.80;;;;;;;;;;5044351;28;20940;-75
2022/12/24 04:19:13;;;;;;;1.77;0.50;;;;;;;;;;5047554;28;20021;-74
2022/12/24 04:21:39;;;;;;;2.20;0.52;;;;;;;;;;5045950;28;20392;-75
2022/12/24 04:24:05;;;;;;;2.20;0.60;;;;;;;;;;5046847;28;20029;-75
2022/12/24 04:26:31;;;;;;;2.53;0.60;;;;;;;;;;5045801;28;20048;-75
2022/12/24 04:28:57;;;;;;;1.52;0.50;;;;;;;;;;5039881;28;20032;-75
2022/12/24 04:31:24;;;;;;;1.80;0.70;;;;;;;;;;5046400;28;20533;-74
2022/12/24 04:33:51;;;;;;;1.50;0.60;;;;;;;;;;5045392;28;20037;-75
2022/12/24 04:36:17;;;;;;;2.45;0.65;;;;;;;;;;5043651;28;20040;-75
2022/12/24 04:38:43;;;;;;;1.83;0.55;;;;;;;;;;5044351;28;20120;-75
2022/12/24 04:41:13;;;;;;;1.63;0.60;;;;;;;;;;5039507;28;20029;-75
2022/12/24 04:43:39;;;;;;;3.42;0.80;;;;;;;;;;5037729;28;20068;-75
2022/12/24 04:46:06;;;;;;;1.67;0.50;;;;;;;;;;5046747;28;20111;-74
2022/12/24 04:48:32;;;;;;;3.30;1.20;;;;;;;;;;5043254;28;20565;-74
2022/12/24 04:51:00;;;;;;;2.22;0.60;;;;;;;;;;5043287;28;20025;-74
2022/12/24 04:53:26;;;;;;;0.93;0.45;;;;;;;;;;5038074;28;20380;-74
2022/12/24 04:55:52;;;;;;;1.60;0.60;;;;;;;;;;5042387;28;20033;-74
2022/12/24 04:58:18;;;;;;;1.98;0.70;;;;;;;;;;5041070;28;20118;-74
2022/12/24 05:00:44;;;;;;;0.68;0.38;;;;;;;;;;5040602;28;20025;-74
2022/12/24 05:03:10;;;;;;;2.15;0.50;;;;;;;;;;5044256;28;20025;-74
2022/12/24 05:05:36;;;;;;;1.77;0.50;;;;;;;;;;5041740;28;20033;-74
2022/12/24 05:08:02;;;;;;;1.50;0.60;;;;;;;;;;5045576;28;20037;-74
2022/12/24 05:10:29;;;;;;;1.00;0.50;;;;;;;;;;5040713;28;20048;-74
2022/12/24 05:12:54;;;;;;;2.20;0.60;;;;;;;;;;5041153;28;20048;-74
2022/12/24 05:15:20;;;;;;;0.75;0.30;;;;;;;;;;5037634;28;20037;-74
2022/12/24 05:17:47;;;;;;;1.83;0.50;;;;;;;;;;5046987;28;20041;-75
2022/12/24 05:20:13;;;;;;;1.58;0.45;;;;;;;;;;5041182;28;20040;-74
2022/12/24 05:28:08;;;;;;;2.75;0.80;;;;;;;;;;5044691;28;20356;-74
2022/12/24 05:30:34;;;;;;;1.35;0.60;;;;;;;;;;5040629;28;20044;-74
2022/12/24 05:33:00;;;;;;;2.78;0.60;;;;;;;;;;5042416;28;20159;-74
2022/12/24 05:35:26;;;;;;;1.77;0.68;;;;;;;;;;5037410;28;20545;-74
2022/12/24 05:37:52;;;;;;;2.80;0.80;;;;;;;;;;5040193;28;20033;-75
2022/12/24 05:40:18;;;;;;;2.33;0.50;;;;;;;;;;5040628;28;20104;-74
2022/12/24 05:42:44;;;;;;;2.00;0.82;;;;;;;;;;5044372;28;20032;-74
2022/12/24 05:45:10;;;;;;;1.73;0.77;;;;;;;;;;5039573;28;20029;-74
2022/12/24 05:47:36;;;;;;;3.75;1.27;;;;;;;;;;5038747;28;20083;-74
2022/12/24 05:50:02;;;;;;;3.50;1.40;;;;;;;;;;5040242;28;20141;-74
2022/12/24 05:52:28;;;;;;;5.28;0.93;;;;;;;;;;5043490;28;20030;-74
2022/12/24 05:54:54;;;;;;;4.15;1.10;;;;;;;;;;5044071;28;20066;-74
2022/12/24 05:57:20;;;;;;;5.22;1.50;;;;;;;;;;5043443;28;20483;-74
2022/12/24 05:59:47;;;;;;;3.63;1.70;;;;;;;;;;5042266;28;20099;-74
2022/12/24 06:02:13;;;;;;;5.25;1.92;;;;;;;;;;5040490;28;20021;-75
2022/12/24 06:04:39;;;;;;;3.30;1.13;;;;;;;;;;5043785;28;20082;-75
2022/12/24 06:07:05;;;;;;;1.67;0.60;;;;;;;;;;5041567;28;20032;-74
2022/12/24 06:09:31;;;;;;;1.23;0.60;;;;;;;;;;5036347;28;20186;-74
2022/12/24 06:11:57;;;;;;;3.25;0.70;;;;;;;;;;5043460;28;20032;-74
2022/12/24 06:14:23;;;;;;;1.15;0.60;;;;;;;;;;5040573;28;20037;-74
2022/12/24 06:16:49;;;;;;;2.25;0.90;;;;;;;;;;5043752;28;20048;-74
2022/12/24 06:19:15;;;;;;;4.85;0.98;;;;;;;;;;5039177;28;20475;-75
2022/12/24 06:21:41;;;;;;;4.88;1.63;;;;;;;;;;5041211;28;20035;-74
2022/12/24 06:24:07;;;;;;;5.25;2.08;;;;;;;;;;5039258;28;20025;-74
2022/12/24 06:26:33;;;;;;;4.07;1.33;;;;;;;;;;5041410;28;20045;-73
2022/12/24 06:28:59;;;;;;;3.30;1.10;;;;;;;;;;5039947;28;20028;-73
2022/12/24 06:31:25;;;;;;;4.07;1.00;;;;;;;;;;5039440;28;20037;-73
2022/12/24 06:33:52;;;;;;;2.97;0.90;;;;;;;;;;5022676;28;20061;-74
2022/12/24 06:36:19;;;;;;;3.67;1.20;;;;;;;;;;5039306;28;20357;-73
2022/12/24 06:38:46;;;;;;;4.00;1.10;;;;;;;;;;5039133;28;20036;-73
2022/12/24 06:41:12;;;;;;;5.18;1.60;;;;;;;;;;5037525;28;20033;-73
2022/12/24 06:43:38;;;;;;;2.83;1.25;;;;;;;;;;5036358;28;20237;-73
2022/12/24 06:46:04;;;;;;;7.45;2.03;;;;;;;;;;5038811;28;20025;-73
2022/12/24 06:48:30;;;;;;;5.15;1.63;;;;;;;;;;5038102;28;20068;-74
2022/12/24 06:50:56;;;;;;;6.25;1.85;;;;;;;;;;5027425;28;20043;-73
2022/12/24 06:53:22;;;;;;;4.20;1.98;;;;;;;;;;5042717;28;20029;-73
2022/12/24 06:55:48;;;;;;;5.68;1.20;;;;;;;;;;5043582;28;20044;-74
2022/12/24 06:58:14;;;;;;;4.00;1.92;;;;;;;;;;5035299;28;20033;-74
2022/12/24 07:00:40;;;;;;;4.75;2.72;;;;;;;;;;5041319;28;20459;-74
2022/12/24 07:03:06;;;;;;;7.22;2.13;;;;;;;;;;5031831;28;20029;-74
2022/12/24 07:05:32;;;;;;;5.90;2.95;;;;;;;;;;5044453;28;20033;-75
2022/12/24 07:07:58;;;;;;;5.55;2.42;;;;;;;;;;5022222;28;20065;-75
2022/12/24 07:10:24;;;;;;;5.35;2.05;;;;;;;;;;5042101;28;20535;-75
2022/12/24 07:12:50;;;;;;;4.82;1.60;;;;;;;;;;5041677;28;20051;-74
2022/12/24 07:15:16;;;;;;;7.70;3.35;;;;;;;;;;5037264;28;20029;-76
2022/12/24 07:17:42;;;;;;;6.00;3.45;;;;;;;;;;5045429;28;20049;-75
2022/12/24 07:20:11;;;;;;;3.55;1.02;;;;;;;;;;5036926;28;20025;-75
2022/12/24 07:22:37;;;;;;;2.55;0.50;;;;;;;;;;5040371;28;20075;-75
2022/12/24 07:25:03;;;;;;;2.20;0.50;;;;;;;;;;5040295;28;20021;-75
2022/12/24 07:27:30;;;;;;;2.70;0.73;;;;;;;;;;5039301;28;20067;-76
2022/12/24 07:29:56;;;;;;;4.32;0.70;;;;;;;;;;5042975;28;20388;-75
2022/12/24 07:32:22;;;;;;;2.75;0.82;;;;;;;;;;5044572;28;20048;-75
2022/12/24 07:34:48;;;;;;;3.28;1.30;;;;;;;;;;5042105;28;20025;-75
2022/12/24 07:37:14;;;;;;;1.20;0.60;;;;;;;;;;5045795;28;20467;-75
2022/12/24 07:39:40;;;;;;;2.40;0.90;;;;;;;;;;5045474;28;20032;-75
2022/12/24 07:42:06;;;;;;;6.93;2.90;;;;;;;;;;5042489;28;20033;-75
2022/12/24 07:44:33;;;;;;;11.57;4.88;;;;;;;;;;5046439;28;20108;-76
2022/12/24 07:46:59;;;;;;;9.27;4.95;;;;;;;;;;5047044;28;20041;-76
2022/12/24 07:49:25;;;;;;;16.88;11.73;;;;;;;;;;5029886;28;20040;-76
2022/12/24 07:51:51;;;;;;;8.52;3.53;;;;;;;;;;5022613;28;20495;-75
2022/12/24 07:54:17;;;;;;;9.52;4.55;;;;;;;;;;5029517;28;20057;-76
2022/12/24 07:56:43;;;;;;;9.23;3.80;;;;;;;;;;5024916;28;20120;-76
2022/12/24 07:59:11;;;;;;;3.67;0.90;;;;;;;;;;5027701;28;20544;-76
2022/12/24 08:01:37;;;;;;;4.03;0.70;;;;;;;;;;5024190;28;20670;-75
2022/12/24 08:04:03;;;;;;;4.00;1.30;;;;;;;;;;5028766;28;20040;-76
2022/12/24 08:06:29;;;;;;;11.20;6.07;;;;;;;;;;5039948;28;20048;-75
2022/12/24 08:08:55;;;;;;;9.50;5.72;;;;;;;;;;5027518;28;20016;-76
2022/12/24 08:11:21;;;;;;;10.82;5.15;;;;;;;;;;5027817;28;20506;-76
2022/12/24 08:13:47;;;;;;;8.60;4.82;;;;;;;;;;5041591;28;20044;-76
2022/12/24 08:16:14;;;;;;;6.57;3.55;;;;;;;;;;5028690;28;20026;-75
2022/12/24 08:18:41;;;;;;;9.52;4.03;;;;;;;;;;5020383;28;20029;-75
2022/12/24 08:21:07;;;;;;;6.45;3.00;;;;;;;;;;5028583;28;20107;-75
2022/12/24 08:23:34;;;;;;;5.32;2.03;;;;;;;;;;5045228;28;20033;-75
2022/12/24 08:26:00;;;;;;;4.68;1.85;;;;;;;;;;5046279;28;20050;-76
2022/12/24 08:28:26;;;;;;;3.35;1.50;;;;;;;;;;5026273;28;20479;-75
2022/12/24 08:30:52;;;;;;;4.60;2.22;;;;;;;;;;5044095;28;20037;-75
2022/12/24 08:33:18;;;;;;;3.50;1.48;;;;;;;;;;5018260;28;20066;-75
2022/12/24 08:35:49;;;;;;;3.95;2.17;;;;;;;;;;5030324;28;20693;-76
2022/12/24 08:38:15;;;;;;;5.88;2.15;;;;;;;;;;5042612;28;20047;-75
2022/12/24 08:40:41;;;;;;;6.15;2.50;;;;;;;;;;5045421;28;20111;-75
2022/12/24 08:43:07;;;;;;;6.85;3.08;;;;;;;;;;5019370;28;20064;-75
2022/12/24 08:45:34;;;;;;;8.02;5.38;;;;;;;;;;5014503;28;20162;-75
2022/12/24 08:48:00;;;;;;;9.10;6.00;;;;;;;;;;5041507;28;20091;-75
2022/12/24 08:50:27;;;;;;;10.20;6.28;;;;;;;;;;5043434;28;20609;-75
2022/12/24 08:52:53;;;;;;;8.45;4.82;;;;;;;;;;5037836;28;20029;-75
2022/12/24 08:55:19;;;;;;;9.50;3.50;;;;;;;;;;5036664;28;20041;-75
2022/12/24 08:57:45;;;;;;;6.82;3.78;;;;;;;;;;5042579;28;20408;-75
2022/12/24 09:00:12;;;;;;;7.32;3.63;;;;;;;;;;5037211;28;20033;-75
2022/12/24 09:02:38;;;;;;;5.38;2.78;;;;;;;;;;5039075;28;20032;-75
2022/12/24 09:05:04;;;;;;;7.25;4.05;;;;;;;;;;5037108;28;20522;-76
2022/12/24 09:07:30;;;;;;;6.95;3.60;;;;;;;;;;5039993;28;20037;-76
2022/12/24 09:09:56;;;;;;;3.60;1.52;;;;;;;;;;5024346;28;20162;-75
2022/12/24 09:12:22;;;;;;;4.80;1.30;;;;;;;;;;5040782;28;20037;-76
2022/12/24 09:14:50;;;;;;;4.28;1.30;;;;;;;;;;5018329;28;20706;-75
2022/12/24 09:17:16;;;;;;;3.15;1.40;;;;;;;;;;5043593;28;20052;-75
2022/12/24 09:19:42;;;;;;;8.27;3.92;;;;;;;;;;5041525;28;20037;-75
2022/12/24 09:22:08;;;;;;;12.48;6.68;;;;;;;;;;5043160;28;20766;-75
2022/12/24 09:24:35;;;;;;;11.02;6.20;;;;;;;;;;5043463;28;20174;-75
2022/12/24 09:27:02;;;;;;;10.07;6.13;;;;;;;;;;5045069;28;20044;-75
2022/12/24 09:29:28;;;;;;;10.98;7.20;;;;;;;;;;5021585;28;20037;-75
2022/12/24 09:31:55;;;;;;;9.77;5.75;;;;;;;;;;5039983;28;20037;-76
2022/12/24 09:34:21;;;;;;;10.88;7.65;;;;;;;;;;5038727;28;20037;-75
2022/12/24 09:36:47;;;;;;;7.07;2.55;;;;;;;;;;5044154;28;20037;-75
2022/12/24 09:39:14;;;;;;;3.92;2.00;;;;;;;;;;5040411;28;20037;-75
2022/12/24 09:41:49;;;;;;;4.55;2.10;;;;;;;;;;5040888;28;20036;-75
2022/12/24 09:44:33;;;;;;;3.97;1.58;;;;;;;;;;5042817;28;20037;-75
2022/12/24 09:47:00;;;;;;;3.92;1.27;;;;;;;;;;5044321;28;20064;-75
2022/12/24 09:49:33;;;;;;;3.42;1.58;;;;;;;;;;5044562;28;20068;-75
2022/12/24 09:52:04;;;;;;;4.15;1.70;;;;;;;;;;5041282;28;20025;-76
2022/12/24 09:54:32;;;;;;;4.00;1.75;;;;;;;;;;5044660;28;20033;-76
2022/12/24 09:57:06;;;;;;;5.32;2.38;;;;;;;;;;5045900;28;20041;-76
2022/12/24 09:59:39;;;;;;;3.40;1.60;;;;;;;;;;5046854;28;20100;-76
2022/12/24 10:02:09;;;;;;;9.75;5.07;;;;;;;;;;5040422;28;20039;-76
2022/12/24 10:04:35;;;;;;;14.63;8.43;;;;;;;;;;5024879;28;20049;-76
2022/12/24 10:07:08;;;;;;;16.95;10.80;;;;;;;;;;5041867;28;20033;-75
2022/12/24 10:09:42;;;;;;;13.73;8.82;;;;;;;;;;5044639;28;20073;-76
2022/12/24 10:12:28;;;;;;;10.30;6.35;;;;;;;;;;5044989;28;20039;-75
2022/12/24 10:14:54;;;;;;;8.98;5.13;;;;;;;;;;5043438;28;20029;-75
2022/12/24 10:17:27;;;;;;;7.18;3.95;;;;;;;;;;5045773;28;20348;-76
2022/12/24 10:19:56;;;;;;;10.40;4.88;;;;;;;;;;5045781;28;20103;-76
2022/12/24 10:22:22;;;;;;;7.32;4.63;;;;;;;;;;5042498;28;20046;-76
2022/12/24 10:25:07;;;;;;;9.18;5.28;;;;;;;;;;5050611;28;20032;-75
2022/12/24 10:27:38;;;;;;;10.30;6.10;;;;;;;;;;5050838;28;20079;-75
2022/12/24 10:30:12;;;;;;;10.57;5.78;;;;;;;;;;5049282;28;20412;-76
2022/12/24 10:32:39;;;;;;;10.93;6.07;;;;;;;;;;5045832;28;20033;-76
2022/12/24 10:35:15;;;;;;;9.02;5.20;;;;;;;;;;5048339;28;20037;-76
2022/12/24 10:37:46;;;;;;;7.82;4.25;;;;;;;;;;5048869;28;20048;-76
2022/12/24 10:40:31;;;;;;;8.10;4.68;;;;;;;;;;5051534;28;20070;-75
2022/12/24 10:42:56;;;;;;;6.95;3.80;;;;;;;;;;5051033;28;20075;-75
2022/12/24 10:45:25;;;;;;;7.65;3.25;;;;;;;;;;5030265;28;20065;-76
2022/12/24 10:47:54;;;;;;;5.53;2.83;;;;;;;;;;5047748;28;20136;-76
2022/12/24 10:50:23;;;;;;;6.60;3.17;;;;;;;;;;5042142;28;20036;-75
2022/12/24 10:52:50;;;;;;;4.93;2.80;;;;;;;;;;5025527;28;20830;-75
2022/12/24 10:55:16;;;;;;;7.30;2.72;;;;;;;;;;5050576;28;20848;-75
2022/12/24 10:57:43;;;;;;;5.25;2.10;;;;;;;;;;5048653;28;20160;-76
2022/12/24 11:00:27;;;;;;;4.88;1.90;;;;;;;;;;5045221;28;20029;-75
2022/12/24 11:03:28;;;;;;;5.22;2.53;;;;;;;;;;5042394;28;20044;-75
2022/12/24 11:06:05;;;;;;;8.07;2.30;;;;;;;;;;4929185;29;20091;-75
2022/12/24 11:08:32;;;;;;;5.00;2.00;;;;;;;;;;5032470;28;20128;-74
2022/12/24 11:11:00;;;;;;;4.55;1.80;;;;;;;;;;5049000;28;20503;-75
2022/12/24 11:13:28;;;;;;;5.07;2.35;;;;;;;;;;5047003;28;20116;-75
2022/12/24 11:16:01;;;;;;;5.18;1.90;;;;;;;;;;5049940;28;20082;-76
2022/12/24 11:18:27;;;;;;;5.15;2.67;;;;;;;;;;5044217;28;20033;-75
2022/12/24 11:20:53;;;;;;;6.10;2.00;;;;;;;;;;5050854;28;20527;-76
2022/12/24 11:23:20;;;;;;;5.60;1.73;;;;;;;;;;5048136;28;20047;-76
2022/12/24 11:25:48;;;;;;;7.03;1.92;;;;;;;;;;5047592;28;20033;-75
2022/12/24 11:28:24;;;;;;;6.95;2.38;;;;;;;;;;5047109;28;20044;-76
2022/12/24 11:30:59;;;;;;;5.57;2.20;;;;;;;;;;5044261;28;20044;-76
2022/12/24 11:33:26;;;;;;;4.82;2.30;;;;;;;;;;5051250;28;20037;-76
2022/12/24 11:35:54;;;;;;;4.40;1.80;;;;;;;;;;5046035;28;20033;-76
2022/12/24 11:38:21;;;;;;;4.47;1.55;;;;;;;;;;5049970;28;20033;-75
2022/12/24 11:40:49;;;;;;;3.97;2.10;;;;;;;;;;5045092;28;20122;-76
2022/12/24 11:43:15;;;;;;;7.47;2.20;;;;;;;;;;5028180;28;20124;-76
2022/12/24 11:45:47;;;;;;;6.07;2.42;;;;;;;;;;5045648;28;20144;-76
2022/12/24 11:48:30;;;;;;;8.00;3.10;;;;;;;;;;5046720;28;20768;-76
2022/12/24 11:50:55;;;;;;;;;;;;;;;;;;5045413;28;20032;-77
2022/12/24 11:53:25;;;;;;;8.00;2.78;;;;;;;;;;5047583;28;19917;-76
2022/12/24 11:55:53;;;;;;;6.05;2.50;;;;;;;;;;5035638;28;20029;-76
2022/12/24 11:58:31;;;;;;;5.05;2.47;;;;;;;;;;5042140;28;20381;-77
2022/12/24 12:01:05;;;;;;;5.53;2.85;;;;;;;;;;5044905;28;20029;-76
2022/12/24 12:03:42;;;;;;;5.43;2.50;;;;;;;;;;5042522;28;20037;-77
2022/12/24 12:06:44;;;;;;;7.90;2.90;;;;;;;;;;5052698;28;20034;-76
2022/12/24 12:09:12;;;;;;;6.22;2.65;;;;;;;;;;4965092;28;20038;-76
2022/12/24 12:11:39;;;;;;;5.47;2.20;;;;;;;;;;5028001;28;20076;-76
2022/12/24 12:14:05;;;;;;;3.83;1.83;;;;;;;;;;5042436;28;20025;-76
2022/12/24 12:17:06;;;;;;;5.10;2.22;;;;;;;;;;5046969;28;20483;-76
2022/12/24 12:19:39;;;;;;;4.97;2.15;;;;;;;;;;5034286;28;20033;-75
2022/12/24 12:22:10;;;;;;;7.78;3.30;;;;;;;;;;5046073;28;20187;-76
2022/12/24 12:24:37;;;;;;;8.93;3.70;;;;;;;;;;5042191;28;20452;-76
2022/12/24 12:27:07;;;;;;;5.65;2.78;;;;;;;;;;5042352;28;20037;-76
2022/12/24 12:29:35;;;;;;;5.20;2.83;;;;;;;;;;5039644;28;20045;-75
2022/12/24 12:32:04;;;;;;;5.55;2.20;;;;;;;;;;5044958;28;20063;-76
2022/12/24 12:34:40;;;;;;;6.40;2.22;;;;;;;;;;5045951;28;20119;-76
2022/12/24 12:37:10;;;;;;;6.30;2.63;;;;;;;;;;5040909;28;20044;-76
2022/12/24 12:39:36;;;;;;;5.13;2.08;;;;;;;;;;5046395;28;20036;-77
2022/12/24 12:42:06;;;;;;;4.75;2.35;;;;;;;;;;5038569;28;20037;-76
2022/12/24 12:44:31;;;;;;;3.97;2.08;;;;;;;;;;5045265;28;20033;-76
2022/12/24 12:47:13;;;;;;;5.38;2.80;;;;;;;;;;5045399;28;20795;-76
2022/12/24 12:49:53;;;;;;;7.55;4.00;;;;;;;;;;5041093;28;20036;-76
2022/12/24 12:52:34;;;;;;;6.72;3.88;;;;;;;;;;5045043;28;20036;-76
2022/12/24 12:55:18;;;;;;;6.00;3.17;;;;;;;;;;5044202;28;20030;-76
2022/12/24 12:57:45;;;;;;;9.50;3.70;;;;;;;;;;5045754;28;20033;-76
2022/12/24 13:00:13;;;;;;;5.72;2.75;;;;;;;;;;5043714;28;20480;-76
2022/12/24 13:02:57;;;;;;;6.15;2.60;;;;;;;;;;5046031;28;20029;-75
2022/12/24 13:05:48;;;;;;;3.80;1.85;;;;;;;;;;5044112;28;20075;-76
2022/12/24 13:08:17;;;;;;;5.35;2.30;;;;;;;;;;5038849;28;20134;-76
2022/12/24 13:10:43;;;;;;;4.93;2.58;;;;;;;;;;5035513;28;20501;-76
2022/12/24 13:13:21;;;;;;;6.88;3.25;;;;;;;;;;5039794;28;20107;-75
2022/12/24 13:16:14;;;;;;;6.63;3.20;;;;;;;;;;5034255;28;20364;-76
2022/12/24 13:18:40;;;;;;;5.60;2.83;;;;;;;;;;5046082;28;20083;-76
2022/12/24 13:21:14;;;;;;;6.25;3.17;;;;;;;;;;5034811;28;20017;-76
2022/12/24 13:23:40;;;;;;;7.03;3.25;;;;;;;;;;5042838;28;20037;-76
2022/12/24 13:26:10;;;;;;;5.55;2.97;;;;;;;;;;5041427;28;20511;-76
2022/12/24 13:28:37;;;;;;;6.15;3.10;;;;;;;;;;5045239;28;20044;-76
2022/12/24 13:31:18;;;;;;;6.28;2.95;;;;;;;;;;5023544;28;20482;-76
2022/12/24 13:33:44;;;;;;;11.25;4.20;;;;;;;;;;5038403;28;20045;-77
2022/12/24 13:36:18;;;;;;;8.98;4.10;;;;;;;;;;5042500;28;20749;-76
2022/12/24 13:38:47;;;;;;;8.02;3.25;;;;;;;;;;5039173;28;20045;-76
2022/12/24 13:41:32;;;;;;;8.40;3.47;;;;;;;;;;5040520;28;20036;-76
2022/12/24 13:44:14;;;;;;;8.15;3.42;;;;;;;;;;5042822;28;20059;-76
2022/12/24 13:47:17;;;;;;;5.95;2.70;;;;;;;;;;5038878;28;20095;-76
2022/12/24 13:49:44;;;;;;;8.00;4.30;;;;;;;;;;4944341;28;20066;-76
2022/12/24 13:52:10;;;;;;;7.82;3.92;;;;;;;;;;5020362;28;20069;-76
2022/12/24 13:54:45;;;;;;;7.90;4.03;;;;;;;;;;5024523;28;20029;-76
2022/12/24 13:57:30;;;;;;;14.35;8.68;;;;;;;;;;5038224;28;20071;-76
2022/12/24 14:00:01;;;;;;;13.45;7.00;;;;;;;;;;5037319;28;20032;-76
2022/12/24 14:02:31;;;;;;;12.80;7.20;;;;;;;;;;5043102;28;20075;-76
2022/12/24 14:04:59;;;;;;;10.52;4.93;;;;;;;;;;5035450;28;20275;-76
2022/12/24 14:07:25;;;;;;;9.02;4.35;;;;;;;;;;5040183;28;20482;-76
2022/12/24 14:09:51;;;;;;;7.68;4.15;;;;;;;;;;5040470;28;20049;-76
2022/12/24 14:12:29;;;;;;;14.65;9.57;;;;;;;;;;5045389;28;20044;-76
2022/12/24 14:14:55;;;;;;;12.90;7.68;;;;;;;;;;5039007;28;20026;-76
2022/12/24 14:17:25;;;;;;;10.27;5.15;;;;;;;;;;5040871;28;20041;-76
2022/12/24 14:19:52;;;;;;;7.35;3.90;;;;;;;;;;5026975;28;20025;-76
2022/12/24 14:22:18;;;;;;;8.45;4.60;;;;;;;;;;5041252;28;20029;-76
2022/12/24 14:24:49;;;;;;;9.70;6.05;;;;;;;;;;5021916;28;20063;-76
2022/12/24 14:27:20;;;;;;;11.93;7.57;;;;;;;;;;5040502;28;20061;-76
2022/12/24 14:29:56;;;;;;;9.68;6.32;;;;;;;;;;5040465;28;20032;-76
2022/12/24 14:32:22;;;;;;;14.82;7.45;;;;;;;;;;5040065;28;20417;-76
2022/12/24 14:35:04;;;;;;;11.25;7.05;;;;;;;;;;5021956;28;20034;-76
2022/12/24 14:37:31;;;;;;;9.02;5.50;;;;;;;;;;5034854;28;20075;-76
2022/12/24 14:39:57;;;;;;;10.50;6.40;;;;;;;;;;5021085;28;20033;-76
2022/12/24 14:42:34;;;;;;;9.40;5.65;;;;;;;;;;5043659;28;20492;-76
2022/12/24 14:45:02;;;;;;;10.60;4.35;;;;;;;;;;5037487;28;20073;-76
2022/12/24 14:47:34;;;;;;;6.50;3.25;;;;;;;;;;5046120;28;20048;-76
2022/12/24 14:50:00;;;;;;;;;;;;;;;;;;5027866;28;20415;-76
2022/12/24 14:52:37;;;;;;;6.50;3.38;;;;;;;;;;5044332;28;19917;-76
2022/12/24 14:55:22;;;;;;;7.82;3.30;;;;;;;;;;5043388;28;20067;-76
2022/12/24 14:57:48;;;;;;;9.80;3.80;;;;;;;;;;5022704;28;20070;-76
2022/12/24 15:00:19;;;;;;;6.03;3.88;;;;;;;;;;5024948;28;20025;-76
2022/12/24 15:02:46;;;;;;;11.47;8.40;;;;;;;;;;5015904;28;20026;-76